createdAt,value
2022-12-28T00:01:11.650Z,7.40
2022-12-28T00:03:38.259Z,7.63
2022-12-28T00:06:05.854Z,11.73
2022-12-28T00:08:32.578Z,8.25
2022-12-28T00:11:12.164Z,9.63
2022-12-28T00:13:45.726Z,7.47
2022-12-28T00:16:29.056Z,8.95
2022-12-28T00:18:58.073Z,9.18
2022-12-28T00:21:25.313Z,9.05
2022-12-28T00:23:52.982Z,8.82
2022-12-28T00:26:20.182Z,9.40
2022-12-28T00:28:47.926Z,9.73
2022-12-28T00:31:15.695Z,7.53
2022-12-28T00:33:42.805Z,7.45
2022-12-28T00:36:13.747Z,7.95
2022-12-28T00:38:42.204Z,8.23
2022-12-28T00:41:09.802Z,11.45
2022-12-28T00:43:36.910Z,9.50
2022-12-28T00:46:04.210Z,8.40
2022-12-28T00:48:31.877Z,9.35
2022-12-28T00:51:08.378Z,10.32
2022-12-28T00:53:35.398Z,8.68
2022-12-28T00:56:18.976Z,22.40
2022-12-28T00:58:48.737Z,10.63
2022-12-28T01:01:19.039Z,18.33
2022-12-28T01:03:46.385Z,13.98
2022-12-28T01:06:15.159Z,14.30
2022-12-28T01:08:42.615Z,10.18
2022-12-28T01:11:23.820Z,24.58
2022-12-28T01:13:52.683Z,9.05
2022-12-28T01:16:28.460Z,8.13
2022-12-28T01:18:57.809Z,7.57
2022-12-28T01:21:27.530Z,23.95
2022-12-28T01:23:56.188Z,8.05
2022-12-28T01:26:23.196Z,8.65
2022-12-28T01:28:50.272Z,8.85
2022-12-28T01:31:18.103Z,7.45
2022-12-28T01:33:45.090Z,7.18
2022-12-28T01:36:20.356Z,8.50
2022-12-28T01:38:48.266Z,8.45
2022-12-28T01:41:17.487Z,7.85
2022-12-28T01:43:48.393Z,7.25
2022-12-28T01:46:22.470Z,7.97
2022-12-28T01:49:10.637Z,8.88
2022-12-28T01:52:04.218Z,16.73
2022-12-28T01:54:39.395Z,15.90
2022-12-28T01:57:06.073Z,18.00
2022-12-28T01:59:37.323Z,15.02
2022-12-28T02:02:04.293Z,12.02
2022-12-28T02:04:31.140Z,12.55
2022-12-28T02:06:57.904Z,12.50
2022-12-28T02:09:33.669Z,10.73
2022-12-28T02:12:00.917Z,8.68
2022-12-28T02:14:27.875Z,9.00
2022-12-28T02:16:55.210Z,9.07
2022-12-28T02:19:33.041Z,7.82
2022-12-28T02:22:21.173Z,7.30
2022-12-28T02:25:13.985Z,7.10
2022-12-28T02:27:59.281Z,6.60
2022-12-28T02:30:25.942Z,7.07
2022-12-28T02:33:13.315Z,7.18
2022-12-28T02:35:54.263Z,6.47
2022-12-28T02:38:33.012Z,7.30
2022-12-28T02:41:03.835Z,7.35
2022-12-28T02:43:32.557Z,6.47
2022-12-28T02:46:35.139Z,7.65
2022-12-28T02:49:37.722Z,7.40
2022-12-28T02:52:25.270Z,6.35
2022-12-28T02:55:27.292Z,7.03
2022-12-28T02:58:13.361Z,7.32
2022-12-28T03:00:55.366Z,6.22
2022-12-28T03:03:45.974Z,8.10
2022-12-28T03:06:56.844Z,7.03
2022-12-28T03:09:38.016Z,18.13
2022-12-28T03:12:15.732Z,16.58
2022-12-28T03:14:54.094Z,21.50
2022-12-28T03:17:44.132Z,25.02
2022-12-28T03:20:40.101Z,25.48
2022-12-28T03:23:28.978Z,31.85
2022-12-28T03:26:17.636Z,34.00
2022-12-28T03:29:08.261Z,28.92
2022-12-28T03:31:38.890Z,26.67
2022-12-28T03:34:10.587Z,28.20
2022-12-28T03:37:10.532Z,23.33
2022-12-28T03:39:51.968Z,16.92
2022-12-28T03:42:52.655Z,19.73
2022-12-28T03:45:45.323Z,14.10
2022-12-28T03:48:15.936Z,8.27
2022-12-28T03:50:46.817Z,6.10
2022-12-28T03:53:23.034Z,7.68
2022-12-28T03:55:52.470Z,5.50
2022-12-28T03:58:21.856Z,6.72
2022-12-28T04:00:49.656Z,5.88
2022-12-28T04:03:17.350Z,6.10
2022-12-28T04:08:01.281Z,6.57
2022-12-28T04:10:28.263Z,7.35
2022-12-28T04:12:56.673Z,10.00
2022-12-28T04:15:37.945Z,9.23
2022-12-28T04:18:04.770Z,6.93
2022-12-28T04:20:32.044Z,6.93
2022-12-28T04:22:58.740Z,7.68
2022-12-28T04:25:26.299Z,8.25
2022-12-28T04:30:16.107Z,8.25
2022-12-28T04:32:42.752Z,8.30
2022-12-28T04:35:09.525Z,7.80
2022-12-28T04:37:44.311Z,7.93
2022-12-28T04:40:11.321Z,8.10
2022-12-28T04:42:37.812Z,10.05
2022-12-28T04:45:05.565Z,11.35
2022-12-28T04:47:32.054Z,13.52
2022-12-28T04:49:58.701Z,13.27
2022-12-28T04:52:25.362Z,13.88
2022-12-28T04:54:52.149Z,24.20
2022-12-28T04:57:18.662Z,35.47
2022-12-28T04:59:45.286Z,90.78
2022-12-28T05:02:11.984Z,120.13
2022-12-28T05:04:38.627Z,149.73
2022-12-28T05:07:05.147Z,43.83
2022-12-28T05:09:31.876Z,48.40
2022-12-28T05:11:58.360Z,48.97
2022-12-28T05:14:24.947Z,75.63
2022-12-28T05:16:52.166Z,43.33
2022-12-28T05:19:18.773Z,69.20
2022-12-28T05:21:45.325Z,148.10
2022-12-28T05:24:12.021Z,450.38
2022-12-28T05:26:38.560Z,120.53
2022-12-28T05:29:05.347Z,60.60
2022-12-28T05:31:31.911Z,30.13
2022-12-28T05:33:58.642Z,17.38
2022-12-28T05:36:26.945Z,16.63
2022-12-28T05:38:54.827Z,13.38
2022-12-28T05:41:24.353Z,11.32
2022-12-28T05:43:51.965Z,10.48
2022-12-28T05:46:22.032Z,46.67
2022-12-28T05:48:48.933Z,74.05
2022-12-28T05:51:18.308Z,169.65
2022-12-28T05:53:44.898Z,74.00
2022-12-28T05:56:20.961Z,131.15
2022-12-28T05:58:53.624Z,95.05
2022-12-28T06:01:23.003Z,143.93
2022-12-28T06:03:53.946Z,90.57
2022-12-28T06:06:21.231Z,115.63
2022-12-28T06:08:48.910Z,102.85
2022-12-28T06:13:36.205Z,27.90
2022-12-28T06:16:15.219Z,44.15
2022-12-28T06:18:42.383Z,32.75
2022-12-28T06:21:13.081Z,40.08
2022-12-28T06:23:40.385Z,42.17
2022-12-28T06:26:08.224Z,34.40
2022-12-28T06:28:38.227Z,23.05
2022-12-28T06:31:11.631Z,19.95
2022-12-28T06:33:38.696Z,17.83
2022-12-28T06:36:14.719Z,17.98
2022-12-28T06:38:46.846Z,19.83
2022-12-28T06:41:15.319Z,18.23
2022-12-28T06:43:43.495Z,14.48
2022-12-28T06:46:11.622Z,25.38
2022-12-28T06:48:39.277Z,75.90
2022-12-28T06:51:13.805Z,73.13
2022-12-28T06:53:40.797Z,26.83
2022-12-28T06:56:32.834Z,33.10
2022-12-28T06:59:03.771Z,17.65
2022-12-28T07:01:38.182Z,20.77
2022-12-28T07:04:06.797Z,13.55
2022-12-28T07:06:42.312Z,15.80
2022-12-28T07:09:13.711Z,37.78
2022-12-28T07:11:41.073Z,49.45
2022-12-28T07:14:07.620Z,52.15
2022-12-28T07:19:03.544Z,49.53
2022-12-28T07:21:36.207Z,51.78
2022-12-28T07:24:04.553Z,51.80
2022-12-28T07:26:34.490Z,52.95
2022-12-28T07:29:02.939Z,52.65
2022-12-28T07:31:35.742Z,47.28
2022-12-28T07:34:05.065Z,44.70
2022-12-28T07:36:32.960Z,50.17
2022-12-28T07:39:00.348Z,54.00
2022-12-28T07:41:29.753Z,53.35
2022-12-28T07:43:59.544Z,56.15
2022-12-28T07:46:31.154Z,83.32
2022-12-28T07:49:01.250Z,95.45
2022-12-28T07:51:33.146Z,103.53
2022-12-28T07:54:00.433Z,89.63
2022-12-28T07:56:29.167Z,77.32
2022-12-28T07:58:58.703Z,63.47
2022-12-28T08:01:27.883Z,55.40
2022-12-28T08:03:57.857Z,46.25
2022-12-28T08:06:26.005Z,42.08
2022-12-28T08:08:55.289Z,42.53
2022-12-28T08:11:27.513Z,74.75
2022-12-28T08:16:24.342Z,65.55
2022-12-28T08:18:51.042Z,98.25
2022-12-28T08:21:24.535Z,109.90
2022-12-28T08:23:51.908Z,112.25
2022-12-28T08:26:22.498Z,68.15
2022-12-28T08:28:50.920Z,68.20
2022-12-28T08:31:21.094Z,75.60
2022-12-28T08:33:48.239Z,96.35
2022-12-28T08:36:14.922Z,96.03
2022-12-28T08:38:43.118Z,90.88
2022-12-28T08:41:13.539Z,62.35
2022-12-28T08:43:40.512Z,58.60
2022-12-28T08:46:13.353Z,72.40
2022-12-28T08:48:41.464Z,72.65
2022-12-28T08:51:12.475Z,85.97
2022-12-28T08:53:40.646Z,102.45
2022-12-28T08:56:12.829Z,97.07
2022-12-28T09:01:21.913Z,77.88
2022-12-28T09:03:51.400Z,60.33
2022-12-28T09:06:21.492Z,48.95
2022-12-28T09:09:08.110Z,55.65
2022-12-28T09:11:36.473Z,54.95
2022-12-28T09:14:05.079Z,48.08
2022-12-28T09:16:31.703Z,49.25
2022-12-28T09:19:00.108Z,54.08
2022-12-28T09:21:29.865Z,68.57
2022-12-28T09:23:57.027Z,54.20
2022-12-28T09:26:29.176Z,48.15
2022-12-28T09:28:57.926Z,53.55
2022-12-28T09:31:27.546Z,52.28
2022-12-28T09:36:47.862Z,46.25
2022-12-28T09:39:18.194Z,48.28
2022-12-28T09:42:03.488Z,40.72
2022-12-28T09:44:39.971Z,42.65
2022-12-28T09:47:21.562Z,43.10
2022-12-28T09:50:13.314Z,37.37
2022-12-28T09:53:06.565Z,35.77
2022-12-28T09:55:35.255Z,37.40
2022-12-28T09:58:04.149Z,37.42
2022-12-28T10:00:45.298Z,36.28
2022-12-28T10:03:18.746Z,41.38
2022-12-28T10:05:45.991Z,41.85
2022-12-28T10:08:17.286Z,55.80
2022-12-28T10:10:48.627Z,46.77
2022-12-28T10:13:53.418Z,47.55
2022-12-28T10:16:20.404Z,44.28
2022-12-28T10:18:48.510Z,44.65
2022-12-28T10:21:18.491Z,45.42
2022-12-28T10:24:20.922Z,48.15
2022-12-28T10:26:35.291Z,51.47
2022-12-28T10:29:01.882Z,37.08
2022-12-28T10:31:38.514Z,30.65
2022-12-28T10:34:22.776Z,16.38
2022-12-28T10:36:50.692Z,14.05
2022-12-28T10:39:28.868Z,12.10
2022-12-28T10:41:58.184Z,10.98
2022-12-28T10:44:39.268Z,18.48
2022-12-28T10:47:18.203Z,31.90
2022-12-28T10:50:10.514Z,32.47
2022-12-28T10:52:39.631Z,33.90
2022-12-28T10:55:30.773Z,39.00
2022-12-28T10:58:29.178Z,51.53
2022-12-28T11:01:10.722Z,41.05
2022-12-28T11:03:40.035Z,43.30
2022-12-28T11:06:13.111Z,24.90
2022-12-28T11:08:41.606Z,12.77
2022-12-28T11:11:18.125Z,10.85
2022-12-28T11:13:53.460Z,10.43
2022-12-28T11:16:21.166Z,10.18
2022-12-28T11:18:47.958Z,11.68
2022-12-28T11:21:20.047Z,9.10
2022-12-28T11:23:49.228Z,7.80
2022-12-28T11:26:18.229Z,4.93
2022-12-28T11:28:48.301Z,5.43
2022-12-28T11:31:28.107Z,4.90
2022-12-28T11:33:58.883Z,4.75
2022-12-28T11:36:27.438Z,4.90
2022-12-28T11:38:56.390Z,4.00
2022-12-28T11:41:31.979Z,4.82
2022-12-28T11:44:04.484Z,6.15
2022-12-28T11:46:31.113Z,4.13
2022-12-28T11:49:03.831Z,4.68
2022-12-28T11:51:35.511Z,5.60
2022-12-28T11:54:38.672Z,5.63
2022-12-28T11:57:07.674Z,4.90
2022-12-28T11:59:35.768Z,4.78
2022-12-28T12:02:28.745Z,3.88
2022-12-28T12:04:55.340Z,4.15
2022-12-28T12:07:31.178Z,3.92
2022-12-28T12:10:44.545Z,4.45
2022-12-28T12:13:26.419Z,5.55
2022-12-28T12:16:06.923Z,6.70
2022-12-28T12:18:52.237Z,6.53
2022-12-28T12:21:39.655Z,5.85
2022-12-28T12:24:30.586Z,6.25
2022-12-28T12:27:13.476Z,6.63
2022-12-28T12:29:45.299Z,6.60
2022-12-28T12:34:55.216Z,5.82
2022-12-28T12:37:37.447Z,5.55
2022-12-28T12:40:10.130Z,6.43
2022-12-28T12:42:36.686Z,5.60
2022-12-28T12:45:36.291Z,6.05
2022-12-28T12:48:22.867Z,6.78
2022-12-28T12:50:59.192Z,7.93
2022-12-28T12:53:28.800Z,5.63
2022-12-28T12:56:30.648Z,6.68
2022-12-28T12:59:24.711Z,4.90
2022-12-28T13:02:40.148Z,5.75
2022-12-28T13:05:11.949Z,6.90
2022-12-28T13:07:40.045Z,5.07
2022-12-28T13:10:14.034Z,5.78
2022-12-28T13:12:41.114Z,6.25
2022-12-28T13:15:15.076Z,13.85
2022-12-28T13:18:42.976Z,30.83
2022-12-28T13:20:57.585Z,15.57
2022-12-28T13:23:26.497Z,16.98
2022-12-28T13:25:56.285Z,16.63
2022-12-28T13:28:28.691Z,24.83
2022-12-28T13:31:18.272Z,20.95
2022-12-28T13:34:15.703Z,22.02
2022-12-28T13:36:58.455Z,12.48
2022-12-28T13:39:30.468Z,8.43
2022-12-28T13:42:00.426Z,9.20
2022-12-28T13:44:36.236Z,6.32
2022-12-28T13:47:05.200Z,9.13
2022-12-28T13:49:36.938Z,7.05
2022-12-28T13:52:08.591Z,6.43
2022-12-28T13:54:38.844Z,7.50
2022-12-28T13:57:36.464Z,5.35
2022-12-28T13:59:55.737Z,7.22
2022-12-28T14:02:23.896Z,11.40
2022-12-28T14:04:54.068Z,9.82
2022-12-28T14:07:24.147Z,20.90
2022-12-28T14:09:51.650Z,6.03
2022-12-28T14:12:18.919Z,8.40
2022-12-28T14:14:47.892Z,49.17
2022-12-28T14:17:15.389Z,11.25
2022-12-28T14:19:42.970Z,13.70
2022-12-28T14:22:35.834Z,8.10
2022-12-28T14:25:22.412Z,4.90
2022-12-28T14:27:58.466Z,5.80
2022-12-28T14:30:27.832Z,13.68
2022-12-28T14:35:22.703Z,10.10
2022-12-28T14:37:56.921Z,16.80
2022-12-28T14:40:31.175Z,20.75
2022-12-28T14:43:03.067Z,18.88
2022-12-28T14:45:36.321Z,16.77
2022-12-28T14:48:32.731Z,6.93
2022-12-28T14:51:03.347Z,6.30
2022-12-28T14:53:31.271Z,8.95
2022-12-28T14:56:11.406Z,64.78
2022-12-28T14:58:54.750Z,47.15
2022-12-28T15:01:22.562Z,22.30
2022-12-28T15:04:05.369Z,47.00
2022-12-28T15:06:32.689Z,25.52
2022-12-28T15:08:59.930Z,19.05
2022-12-28T15:11:28.984Z,20.92
2022-12-28T15:13:57.436Z,14.07
2022-12-28T15:16:24.210Z,19.40
2022-12-28T15:18:50.873Z,8.63
2022-12-28T15:21:20.313Z,17.83
2022-12-28T15:23:53.995Z,17.17
2022-12-28T15:26:23.427Z,13.57
2022-12-28T15:28:50.541Z,20.58
2022-12-28T15:31:20.022Z,14.85
2022-12-28T15:36:24.931Z,37.05
2022-12-28T15:38:51.546Z,21.23
2022-12-28T15:43:36.347Z,90.63
2022-12-28T15:46:02.937Z,21.10
2022-12-28T15:48:32.566Z,30.02
2022-12-28T15:50:59.165Z,47.08
2022-12-28T15:53:25.727Z,11.85
2022-12-28T15:56:20.400Z,8.55
2022-12-28T15:58:47.058Z,8.73
2022-12-28T16:01:16.468Z,13.27
2022-12-28T16:03:43.212Z,17.92
2022-12-28T16:06:09.834Z,17.60
2022-12-28T16:08:37.763Z,17.10
2022-12-28T16:11:12.605Z,26.65
2022-12-28T16:13:39.459Z,18.10
2022-12-28T16:16:07.800Z,23.45
2022-12-28T16:18:34.933Z,28.52
2022-12-28T16:21:03.063Z,17.92
2022-12-28T16:23:32.022Z,13.38
2022-12-28T16:25:59.938Z,32.05
2022-12-28T16:28:27.324Z,20.65
2022-12-28T16:30:54.578Z,13.75
2022-12-28T16:33:22.002Z,11.55
2022-12-28T16:35:50.839Z,14.43
2022-12-28T16:38:22.999Z,19.70
2022-12-28T16:40:49.853Z,18.13
2022-12-28T16:43:19.280Z,27.65
2022-12-28T16:45:45.955Z,29.83
2022-12-28T16:48:15.105Z,37.67
2022-12-28T16:50:42.294Z,44.65
2022-12-28T16:53:09.235Z,40.20
2022-12-28T16:55:42.906Z,42.28
2022-12-28T16:58:09.951Z,32.80
2022-12-28T17:00:39.408Z,32.33
2022-12-28T17:03:06.114Z,32.63
2022-12-28T17:05:34.661Z,47.67
2022-12-28T17:08:02.182Z,48.72
2022-12-28T17:10:29.129Z,74.57
2022-12-28T17:12:55.787Z,32.53
2022-12-28T17:15:25.905Z,64.45
2022-12-28T17:17:52.518Z,52.00
2022-12-28T17:20:19.218Z,98.15
2022-12-28T17:22:45.842Z,46.78
2022-12-28T17:25:12.546Z,40.90
2022-12-28T17:27:39.197Z,69.85
2022-12-28T17:30:06.049Z,58.03
2022-12-28T17:32:33.400Z,117.15
2022-12-28T17:35:00.178Z,64.97
2022-12-28T17:37:26.859Z,41.47
2022-12-28T17:39:53.431Z,55.72
2022-12-28T17:42:20.102Z,27.52
2022-12-28T17:44:48.382Z,32.03
2022-12-28T17:47:15.195Z,33.72
2022-12-28T17:49:42.035Z,35.65
2022-12-28T17:52:08.620Z,34.90
2022-12-28T17:54:35.208Z,39.35
2022-12-28T17:57:01.970Z,65.53
2022-12-28T17:59:28.529Z,50.63
2022-12-28T18:01:55.657Z,72.10
2022-12-28T18:04:22.307Z,36.38
2022-12-28T18:06:48.962Z,63.03
2022-12-28T18:09:15.786Z,26.17
2022-12-28T18:11:42.351Z,85.13
2022-12-28T18:14:12.850Z,19.90
2022-12-28T18:16:39.892Z,47.40
2022-12-28T18:19:06.507Z,57.97
2022-12-28T18:21:33.163Z,39.55
2022-12-28T18:23:59.659Z,15.18
2022-12-28T18:26:27.013Z,20.85
2022-12-28T18:28:57.641Z,22.02
2022-12-28T18:31:25.258Z,16.08
2022-12-28T18:33:52.342Z,62.67
2022-12-28T18:36:22.176Z,16.65
2022-12-28T18:38:49.579Z,24.55
2022-12-28T18:41:20.605Z,62.53
2022-12-28T18:43:47.742Z,12.88
2022-12-28T18:46:14.725Z,101.80
2022-12-28T18:48:42.712Z,10.05
2022-12-28T18:51:16.897Z,13.63
2022-12-28T18:53:43.976Z,8.15
2022-12-28T18:56:14.081Z,27.85
2022-12-28T18:58:42.294Z,8.75
2022-12-28T19:01:39.701Z,24.67
2022-12-28T19:04:01.110Z,53.35
2022-12-28T19:06:29.125Z,9.70
2022-12-28T19:09:02.187Z,8.38
2022-12-28T19:11:29.251Z,9.77
2022-12-28T19:13:58.076Z,17.23
2022-12-28T19:16:31.046Z,11.50
2022-12-28T19:19:03.970Z,13.18
2022-12-28T19:21:38.366Z,24.55
2022-12-28T19:24:17.339Z,5.65
2022-12-28T19:26:45.614Z,43.05
2022-12-28T19:29:13.294Z,16.83
2022-12-28T19:31:43.000Z,13.20
2022-12-28T19:34:09.984Z,15.23
2022-12-28T19:36:36.723Z,17.90
2022-12-28T19:39:13.417Z,20.35
2022-12-28T19:41:43.180Z,19.98
2022-12-28T19:44:13.023Z,17.70
2022-12-28T19:46:47.504Z,17.27
2022-12-28T19:49:20.515Z,18.63
2022-12-28T19:51:57.326Z,47.50
2022-12-28T19:54:26.595Z,19.42
2022-12-28T19:56:56.119Z,29.02
2022-12-28T19:59:24.423Z,17.50
2022-12-28T20:02:03.616Z,17.77
2022-12-28T20:04:35.583Z,16.25
2022-12-28T20:09:29.331Z,13.43
2022-12-28T20:11:56.509Z,13.25
2022-12-28T20:14:26.068Z,10.18
2022-12-28T20:16:53.311Z,8.75
2022-12-28T20:19:22.620Z,8.98
2022-12-28T20:21:49.675Z,8.95
2022-12-28T20:24:21.834Z,6.63
2022-12-28T20:26:48.605Z,19.73
2022-12-28T20:29:17.044Z,37.88
2022-12-28T20:31:44.538Z,33.97
2022-12-28T20:34:11.738Z,30.00
2022-12-28T20:36:41.623Z,34.13
2022-12-28T20:39:08.429Z,34.10
2022-12-28T20:41:56.809Z,29.98
2022-12-28T20:44:26.481Z,27.92
2022-12-28T20:46:54.444Z,25.83
2022-12-28T20:49:23.071Z,43.58
2022-12-28T20:51:51.296Z,25.38
2022-12-28T20:54:19.757Z,26.80
2022-12-28T20:56:53.971Z,26.40
2022-12-28T20:59:26.006Z,28.33
2022-12-28T21:01:55.107Z,22.95
2022-12-28T21:04:24.476Z,21.67
2022-12-28T21:06:52.844Z,27.83
2022-12-28T21:09:19.872Z,24.60
2022-12-28T21:11:46.743Z,23.70
2022-12-28T21:14:13.825Z,22.52
2022-12-28T21:16:40.562Z,34.45
2022-12-28T21:19:07.116Z,22.17
2022-12-28T21:21:33.795Z,51.65
2022-12-28T21:24:02.703Z,23.55
2022-12-28T21:26:29.395Z,21.23
2022-12-28T21:28:55.922Z,27.83
2022-12-28T21:31:23.117Z,20.30
2022-12-28T21:33:49.678Z,19.00
2022-12-28T21:36:19.099Z,55.17
2022-12-28T21:38:48.192Z,66.38
2022-12-28T21:41:37.755Z,16.30
2022-12-28T21:44:06.816Z,46.35
2022-12-28T21:46:34.315Z,14.13
2022-12-28T21:49:03.398Z,16.52
2022-12-28T21:51:35.368Z,11.95
2022-12-28T21:54:13.578Z,16.98
2022-12-28T21:56:41.955Z,14.68
2022-12-28T21:59:09.403Z,29.60
2022-12-28T22:04:24.854Z,69.60
2022-12-28T22:06:51.445Z,63.65
2022-12-28T22:09:36.491Z,72.00
2022-12-28T22:12:21.783Z,72.85
2022-12-28T22:14:48.421Z,66.68
2022-12-28T22:17:15.022Z,66.50
2022-12-28T22:19:41.710Z,55.97
2022-12-28T22:22:08.323Z,55.90
2022-12-28T22:24:34.915Z,45.60
2022-12-28T22:27:01.450Z,37.20
2022-12-28T22:29:28.100Z,36.47
2022-12-28T22:31:54.659Z,28.40
2022-12-28T22:34:21.297Z,20.85
2022-12-28T22:36:47.899Z,24.65
2022-12-28T22:39:14.569Z,29.40
2022-12-28T22:41:41.109Z,139.93
2022-12-28T22:44:09.884Z,25.40
2022-12-28T22:46:39.498Z,270.27
2022-12-28T22:49:06.216Z,414.27
2022-12-28T22:53:45.061Z,112.10
2022-12-28T22:56:19.944Z,375.75
2022-12-28T22:58:48.068Z,600.22
2022-12-28T23:01:17.783Z,516.72
2022-12-28T23:03:45.974Z,140.38
2022-12-28T23:06:14.792Z,96.85
2022-12-28T23:08:41.711Z,10.10
2022-12-28T23:11:31.488Z,11.30
2022-12-28T23:14:20.929Z,9.65
2022-12-28T23:16:48.991Z,10.30
2022-12-28T23:19:34.950Z,10.00
2022-12-28T23:22:22.856Z,24.98
2022-12-28T23:25:15.542Z,16.33
2022-12-28T23:27:44.431Z,11.90
2022-12-28T23:30:19.895Z,8.73
2022-12-28T23:32:48.018Z,25.98
2022-12-28T23:35:16.620Z,6.40
2022-12-28T23:37:43.174Z,9.55
2022-12-28T23:40:12.244Z,7.63
2022-12-28T23:42:40.757Z,22.10
2022-12-28T23:45:09.480Z,5.10
2022-12-28T23:47:36.833Z,5.20
2022-12-28T23:50:04.274Z,5.88
2022-12-28T23:52:31.336Z,5.28
2022-12-28T23:54:57.915Z,4.68
2022-12-28T23:57:24.703Z,5.57
2022-12-28T23:59:51.420Z,4.70
